sensor_id;sensor_type;location;lat;lon;timestamp;P1;durP1;ratioP1;P2;durP2;ratioP2
11935;SDS011;6027;48.576;9.180;2022-11-27T00:00:24;32.10;;;11.67;;
11935;SDS011;6027;48.576;9.180;2022-11-27T00:02:49;18.93;;;11.47;;
11935;SDS011;6027;48.576;9.180;2022-11-27T00:05:15;20.90;;;11.27;;
11935;SDS011;6027;48.576;9.180;2022-11-27T00:07:40;25.57;;;10.40;;
11935;SDS011;6027;48.576;9.180;2022-11-27T00:10:06;25.07;;;9.90;;
11935;SDS011;6027;48.576;9.180;2022-11-27T00:12:32;38.63;;;10.00;;
11935;SDS011;6027;48.576;9.180;2022-11-27T00:14:57;95.30;;;11.80;;
11935;SDS011;6027;48.576;9.180;2022-11-27T00:17:23;72.70;;;12.67;;
11935;SDS011;6027;48.576;9.180;2022-11-27T00:19:48;25.03;;;11.73;;
11935;SDS011;6027;48.576;9.180;2022-11-27T00:22:14;16.17;;;11.43;;
11935;SDS011;6027;48.576;9.180;2022-11-27T00:24:40;12.63;;;10.30;;
11935;SDS011;6027;48.576;9.180;2022-11-27T00:27:07;10.70;;;9.70;;
11935;SDS011;6027;48.576;9.180;2022-11-27T00:29:33;10.37;;;8.43;;
11935;SDS011;6027;48.576;9.180;2022-11-27T00:31:58;9.80;;;8.77;;
11935;SDS011;6027;48.576;9.180;2022-11-27T00:34:24;9.40;;;8.37;;
11935;SDS011;6027;48.576;9.180;2022-11-27T00:36:49;10.50;;;9.50;;
11935;SDS011;6027;48.576;9.180;2022-11-27T00:39:15;10.30;;;9.30;;
11935;SDS011;6027;48.576;9.180;2022-11-27T00:41:40;9.10;;;8.17;;
11935;SDS011;6027;48.576;9.180;2022-11-27T00:44:06;9.07;;;8.20;;
11935;SDS011;6027;48.576;9.180;2022-11-27T00:46:32;10.17;;;9.23;;
11935;SDS011;6027;48.576;9.180;2022-11-27T00:48:59;8.97;;;8.00;;
11935;SDS011;6027;48.576;9.180;2022-11-27T00:51:27;11.37;;;10.30;;
11935;SDS011;6027;48.576;9.180;2022-11-27T00:53:53;11.10;;;9.97;;
11935;SDS011;6027;48.576;9.180;2022-11-27T00:56:20;16.13;;;9.93;;
11935;SDS011;6027;48.576;9.180;2022-11-27T00:58:51;23.20;;;9.57;;
11935;SDS011;6027;48.576;9.180;2022-11-27T01:01:18;26.03;;;9.83;;
11935;SDS011;6027;48.576;9.180;2022-11-27T01:03:49;155.20;;;13.20;;
11935;SDS011;6027;48.576;9.180;2022-11-27T01:06:15;97.00;;;10.83;;
11935;SDS011;6027;48.576;9.180;2022-11-27T01:08:43;67.93;;;9.97;;
11935;SDS011;6027;48.576;9.180;2022-11-27T01:11:12;121.23;;;11.70;;
11935;SDS011;6027;48.576;9.180;2022-11-27T01:13:43;80.03;;;10.10;;
11935;SDS011;6027;48.576;9.180;2022-11-27T01:16:10;199.30;;;13.87;;
11935;SDS011;6027;48.576;9.180;2022-11-27T01:18:39;291.00;;;15.80;;
11935;SDS011;6027;48.576;9.180;2022-11-27T01:21:06;277.77;;;14.43;;
11935;SDS011;6027;48.576;9.180;2022-11-27T01:23:32;325.70;;;15.53;;
11935;SDS011;6027;48.576;9.180;2022-11-27T01:26:02;181.93;;;13.37;;
11935;SDS011;6027;48.576;9.180;2022-11-27T01:28:29;173.43;;;13.60;;
11935;SDS011;6027;48.576;9.180;2022-11-27T01:30:55;151.80;;;13.47;;
11935;SDS011;6027;48.576;9.180;2022-11-27T01:33:21;124.27;;;11.93;;
11935;SDS011;6027;48.576;9.180;2022-11-27T01:35:54;81.13;;;10.20;;
11935;SDS011;6027;48.576;9.180;2022-11-27T01:38:24;81.17;;;10.13;;
11935;SDS011;6027;48.576;9.180;2022-11-27T01:41:07;78.43;;;12.37;;
11935;SDS011;6027;48.576;9.180;2022-11-27T01:43:51;34.43;;;10.03;;
11935;SDS011;6027;48.576;9.180;2022-11-27T01:51:34;143.80;;;11.93;;
11935;SDS011;6027;48.576;9.180;2022-11-27T01:54:06;55.43;;;9.50;;
11935;SDS011;6027;48.576;9.180;2022-11-27T01:56:33;127.80;;;12.27;;
11935;SDS011;6027;48.576;9.180;2022-11-27T01:58:59;51.83;;;8.87;;
11935;SDS011;6027;48.576;9.180;2022-11-27T02:01:26;29.80;;;9.13;;
11935;SDS011;6027;48.576;9.180;2022-11-27T02:03:52;15.47;;;7.30;;
11935;SDS011;6027;48.576;9.180;2022-11-27T02:06:21;7.60;;;6.90;;
11935;SDS011;6027;48.576;9.180;2022-11-27T02:08:49;7.67;;;6.97;;
11935;SDS011;6027;48.576;9.180;2022-11-27T02:11:28;6.87;;;6.20;;
11935;SDS011;6027;48.576;9.180;2022-11-27T02:14:06;7.80;;;7.00;;
11935;SDS011;6027;48.576;9.180;2022-11-27T02:28:23;7.60;;;6.67;;
11935;SDS011;6027;48.576;9.180;2022-11-27T02:31:03;7.07;;;6.37;;
11935;SDS011;6027;48.576;9.180;2022-11-27T02:33:34;7.43;;;6.73;;
11935;SDS011;6027;48.576;9.180;2022-11-27T02:36:06;12.17;;;10.60;;
11935;SDS011;6027;48.576;9.180;2022-11-27T02:38:39;10.03;;;9.03;;
11935;SDS011;6027;48.576;9.180;2022-11-27T02:41:11;16.40;;;14.60;;
11935;SDS011;6027;48.576;9.180;2022-11-27T02:43:44;10.10;;;8.83;;
11935;SDS011;6027;48.576;9.180;2022-11-27T02:46:12;8.57;;;7.77;;
11935;SDS011;6027;48.576;9.180;2022-11-27T02:48:57;9.23;;;8.37;;
11935;SDS011;6027;48.576;9.180;2022-11-27T02:51:33;8.20;;;7.33;;
11935;SDS011;6027;48.576;9.180;2022-11-27T02:54:04;8.43;;;7.63;;
11935;SDS011;6027;48.576;9.180;2022-11-27T02:56:32;7.80;;;7.17;;
11935;SDS011;6027;48.576;9.180;2022-11-27T02:58:59;7.83;;;7.03;;
11935;SDS011;6027;48.576;9.180;2022-11-27T03:01:31;7.50;;;6.90;;
11935;SDS011;6027;48.576;9.180;2022-11-27T03:04:00;6.83;;;6.13;;
11935;SDS011;6027;48.576;9.180;2022-11-27T03:06:39;6.97;;;6.23;;
11935;SDS011;6027;48.576;9.180;2022-11-27T03:11:37;7.60;;;6.90;;
11935;SDS011;6027;48.576;9.180;2022-11-27T03:14:05;7.20;;;6.50;;
11935;SDS011;6027;48.576;9.180;2022-11-27T03:16:35;7.23;;;6.53;;
11935;SDS011;6027;48.576;9.180;2022-11-27T03:19:29;7.00;;;6.40;;
11935;SDS011;6027;48.576;9.180;2022-11-27T03:22:02;7.17;;;6.47;;
11935;SDS011;6027;48.576;9.180;2022-11-27T03:24:29;7.07;;;6.20;;
11935;SDS011;6027;48.576;9.180;2022-11-27T03:26:57;7.37;;;6.67;;
11935;SDS011;6027;48.576;9.180;2022-11-27T03:29:25;7.43;;;6.60;;
11935;SDS011;6027;48.576;9.180;2022-11-27T03:31:54;7.70;;;6.90;;
11935;SDS011;6027;48.576;9.180;2022-11-27T03:34:20;7.90;;;7.10;;
11935;SDS011;6027;48.576;9.180;2022-11-27T03:36:46;7.50;;;6.80;;
11935;SDS011;6027;48.576;9.180;2022-11-27T03:39:11;7.40;;;6.57;;
11935;SDS011;6027;48.576;9.180;2022-11-27T03:41:53;6.63;;;6.00;;
11935;SDS011;6027;48.576;9.180;2022-11-27T03:52:31;7.33;;;6.53;;
11935;SDS011;6027;48.576;9.180;2022-11-27T03:58:10;6.37;;;5.77;;
11935;SDS011;6027;48.576;9.180;2022-11-27T04:00:44;6.73;;;6.03;;
11935;SDS011;6027;48.576;9.180;2022-11-27T04:03:13;6.60;;;6.00;;
11935;SDS011;6027;48.576;9.180;2022-11-27T04:05:50;5.90;;;5.37;;
11935;SDS011;6027;48.576;9.180;2022-11-27T04:08:15;6.37;;;5.83;;
11935;SDS011;6027;48.576;9.180;2022-11-27T04:10:41;6.97;;;5.73;;
11935;SDS011;6027;48.576;9.180;2022-11-27T04:13:06;6.20;;;5.60;;
11935;SDS011;6027;48.576;9.180;2022-11-27T04:15:32;5.00;;;4.60;;
11935;SDS011;6027;48.576;9.180;2022-11-27T04:17:57;5.43;;;4.93;;
11935;SDS011;6027;48.576;9.180;2022-11-27T04:20:23;46.07;;;5.97;;
11935;SDS011;6027;48.576;9.180;2022-11-27T04:22:48;9.20;;;5.90;;
11935;SDS011;6027;48.576;9.180;2022-11-27T04:25:13;20.43;;;6.60;;
11935;SDS011;6027;48.576;9.180;2022-11-27T04:27:39;94.13;;;7.57;;
11935;SDS011;6027;48.576;9.180;2022-11-27T04:30:04;5.33;;;4.73;;
11935;SDS011;6027;48.576;9.180;2022-11-27T04:32:31;32.27;;;5.90;;
11935;SDS011;6027;48.576;9.180;2022-11-27T04:34:56;9.27;;;5.60;;
11935;SDS011;6027;48.576;9.180;2022-11-27T04:37:22;6.27;;;5.70;;
11935;SDS011;6027;48.576;9.180;2022-11-27T04:39:47;6.33;;;5.73;;
11935;SDS011;6027;48.576;9.180;2022-11-27T04:42:13;6.10;;;5.50;;
11935;SDS011;6027;48.576;9.180;2022-11-27T04:44:38;6.63;;;6.00;;
11935;SDS011;6027;48.576;9.180;2022-11-27T04:47:04;18.07;;;16.17;;
11935;SDS011;6027;48.576;9.180;2022-11-27T04:49:29;18.73;;;14.10;;
11935;SDS011;6027;48.576;9.180;2022-11-27T04:51:54;36.97;;;24.80;;
11935;SDS011;6027;48.576;9.180;2022-11-27T04:54:20;19.13;;;15.50;;
11935;SDS011;6027;48.576;9.180;2022-11-27T04:56:45;14.03;;;12.13;;
11935;SDS011;6027;48.576;9.180;2022-11-27T04:59:11;8.70;;;7.67;;
11935;SDS011;6027;48.576;9.180;2022-11-27T05:01:36;6.80;;;6.00;;
11935;SDS011;6027;48.576;9.180;2022-11-27T05:04:02;6.10;;;5.50;;
11935;SDS011;6027;48.576;9.180;2022-11-27T05:06:27;5.67;;;5.17;;
11935;SDS011;6027;48.576;9.180;2022-11-27T05:08:56;5.67;;;5.17;;
11935;SDS011;6027;48.576;9.180;2022-11-27T05:11:26;5.27;;;4.87;;
11935;SDS011;6027;48.576;9.180;2022-11-27T05:13:52;5.63;;;5.13;;
11935;SDS011;6027;48.576;9.180;2022-11-27T05:16:38;5.70;;;5.17;;
11935;SDS011;6027;48.576;9.180;2022-11-27T05:19:04;6.17;;;5.20;;
11935;SDS011;6027;48.576;9.180;2022-11-27T05:21:30;5.80;;;5.20;;
11935;SDS011;6027;48.576;9.180;2022-11-27T05:23:55;5.30;;;4.90;;
11935;SDS011;6027;48.576;9.180;2022-11-27T05:26:20;5.43;;;4.93;;
11935;SDS011;6027;48.576;9.180;2022-11-27T05:28:46;5.30;;;4.87;;
11935;SDS011;6027;48.576;9.180;2022-11-27T05:31:11;4.90;;;4.50;;
11935;SDS011;6027;48.576;9.180;2022-11-27T05:33:37;5.73;;;5.23;;
11935;SDS011;6027;48.576;9.180;2022-11-27T05:36:02;6.13;;;5.00;;
11935;SDS011;6027;48.576;9.180;2022-11-27T05:38:28;5.50;;;5.00;;
11935;SDS011;6027;48.576;9.180;2022-11-27T05:40:53;5.90;;;5.30;;
11935;SDS011;6027;48.576;9.180;2022-11-27T05:43:18;5.57;;;5.03;;
11935;SDS011;6027;48.576;9.180;2022-11-27T05:45:44;5.97;;;5.37;;
11935;SDS011;6027;48.576;9.180;2022-11-27T05:48:09;6.73;;;5.33;;
11935;SDS011;6027;48.576;9.180;2022-11-27T05:50:35;6.60;;;5.90;;
11935;SDS011;6027;48.576;9.180;2022-11-27T05:53:00;7.53;;;6.73;;
11935;SDS011;6027;48.576;9.180;2022-11-27T05:55:25;6.67;;;5.97;;
11935;SDS011;6027;48.576;9.180;2022-11-27T05:57:51;6.20;;;5.60;;
11935;SDS011;6027;48.576;9.180;2022-11-27T06:00:16;5.67;;;5.17;;
11935;SDS011;6027;48.576;9.180;2022-11-27T06:02:43;6.63;;;5.43;;
11935;SDS011;6027;48.576;9.180;2022-11-27T06:05:08;6.30;;;5.47;;
11935;SDS011;6027;48.576;9.180;2022-11-27T06:07:33;5.80;;;5.23;;
11935;SDS011;6027;48.576;9.180;2022-11-27T06:09:59;5.33;;;4.93;;
11935;SDS011;6027;48.576;9.180;2022-11-27T06:12:24;5.10;;;4.57;;
11935;SDS011;6027;48.576;9.180;2022-11-27T06:14:50;5.23;;;4.73;;
11935;SDS011;6027;48.576;9.180;2022-11-27T06:17:15;5.00;;;4.60;;
11935;SDS011;6027;48.576;9.180;2022-11-27T06:19:44;5.10;;;4.60;;
11935;SDS011;6027;48.576;9.180;2022-11-27T06:22:09;4.77;;;4.37;;
11935;SDS011;6027;48.576;9.180;2022-11-27T06:24:35;5.93;;;4.97;;
11935;SDS011;6027;48.576;9.180;2022-11-27T06:27:00;12.43;;;11.30;;
11935;SDS011;6027;48.576;9.180;2022-11-27T06:29:26;11.80;;;10.70;;
11935;SDS011;6027;48.576;9.180;2022-11-27T06:31:51;11.03;;;10.00;;
11935;SDS011;6027;48.576;9.180;2022-11-27T06:34:17;14.57;;;12.00;;
11935;SDS011;6027;48.576;9.180;2022-11-27T06:36:42;13.63;;;9.43;;
11935;SDS011;6027;48.576;9.180;2022-11-27T06:39:09;35.70;;;9.13;;
11935;SDS011;6027;48.576;9.180;2022-11-27T06:41:36;93.57;;;12.60;;
11935;SDS011;6027;48.576;9.180;2022-11-27T06:44:01;249.33;;;17.23;;
11935;SDS011;6027;48.576;9.180;2022-11-27T06:46:27;215.63;;;16.50;;
11935;SDS011;6027;48.576;9.180;2022-11-27T06:48:54;133.87;;;12.20;;
11935;SDS011;6027;48.576;9.180;2022-11-27T06:51:21;433.93;;;17.43;;
11935;SDS011;6027;48.576;9.180;2022-11-27T06:53:48;211.97;;;13.20;;
11935;SDS011;6027;48.576;9.180;2022-11-27T06:56:16;188.50;;;12.30;;
11935;SDS011;6027;48.576;9.180;2022-11-27T06:58:43;204.87;;;11.57;;
11935;SDS011;6027;48.576;9.180;2022-11-27T07:01:11;219.23;;;12.47;;
11935;SDS011;6027;48.576;9.180;2022-11-27T07:03:38;205.97;;;12.73;;
11935;SDS011;6027;48.576;9.180;2022-11-27T07:06:06;161.50;;;10.57;;
11935;SDS011;6027;48.576;9.180;2022-11-27T07:08:33;116.13;;;10.60;;
11935;SDS011;6027;48.576;9.180;2022-11-27T07:11:00;130.23;;;10.17;;
11935;SDS011;6027;48.576;9.180;2022-11-27T07:13:27;239.77;;;12.00;;
11935;SDS011;6027;48.576;9.180;2022-11-27T07:15:54;173.00;;;12.20;;
11935;SDS011;6027;48.576;9.180;2022-11-27T07:18:19;208.60;;;11.37;;
11935;SDS011;6027;48.576;9.180;2022-11-27T07:20:51;235.77;;;13.93;;
11935;SDS011;6027;48.576;9.180;2022-11-27T07:23:17;236.23;;;12.10;;
11935;SDS011;6027;48.576;9.180;2022-11-27T07:25:42;183.50;;;13.70;;
11935;SDS011;6027;48.576;9.180;2022-11-27T07:30:40;232.90;;;21.23;;
11935;SDS011;6027;48.576;9.180;2022-11-27T07:33:06;306.13;;;21.97;;
11935;SDS011;6027;48.576;9.180;2022-11-27T07:35:32;121.03;;;16.73;;
11935;SDS011;6027;48.576;9.180;2022-11-27T07:37:57;115.07;;;13.00;;
11935;SDS011;6027;48.576;9.180;2022-11-27T07:40:22;107.67;;;13.10;;
11935;SDS011;6027;48.576;9.180;2022-11-27T07:43:06;165.23;;;14.30;;
11935;SDS011;6027;48.576;9.180;2022-11-27T07:45:33;159.27;;;17.97;;
11935;SDS011;6027;48.576;9.180;2022-11-27T07:47:58;152.93;;;16.40;;
11935;SDS011;6027;48.576;9.180;2022-11-27T07:50:24;160.20;;;17.07;;
11935;SDS011;6027;48.576;9.180;2022-11-27T07:52:49;60.53;;;11.93;;
11935;SDS011;6027;48.576;9.180;2022-11-27T07:55:15;51.60;;;10.33;;
11935;SDS011;6027;48.576;9.180;2022-11-27T07:57:40;79.23;;;11.30;;
11935;SDS011;6027;48.576;9.180;2022-11-27T08:00:06;192.83;;;13.70;;
11935;SDS011;6027;48.576;9.180;2022-11-27T08:02:33;55.70;;;10.73;;
11935;SDS011;6027;48.576;9.180;2022-11-27T08:04:58;26.60;;;9.50;;
11935;SDS011;6027;48.576;9.180;2022-11-27T08:07:27;87.53;;;11.93;;
11935;SDS011;6027;48.576;9.180;2022-11-27T08:09:53;56.27;;;11.33;;
11935;SDS011;6027;48.576;9.180;2022-11-27T08:12:18;59.07;;;12.07;;
11935;SDS011;6027;48.576;9.180;2022-11-27T08:14:44;84.33;;;13.10;;
11935;SDS011;6027;48.576;9.180;2022-11-27T08:17:14;59.57;;;14.67;;
11935;SDS011;6027;48.576;9.180;2022-11-27T08:19:40;82.13;;;15.20;;
11935;SDS011;6027;48.576;9.180;2022-11-27T08:22:08;49.67;;;15.17;;
11935;SDS011;6027;48.576;9.180;2022-11-27T08:24:36;26.83;;;9.70;;
11935;SDS011;6027;48.576;9.180;2022-11-27T08:27:02;25.33;;;8.83;;
11935;SDS011;6027;48.576;9.180;2022-11-27T08:29:28;15.63;;;8.33;;
11935;SDS011;6027;48.576;9.180;2022-11-27T08:31:54;23.53;;;10.20;;
11935;SDS011;6027;48.576;9.180;2022-11-27T08:34:19;12.90;;;8.33;;
11935;SDS011;6027;48.576;9.180;2022-11-27T08:36:45;13.13;;;9.50;;
11935;SDS011;6027;48.576;9.180;2022-11-27T08:39:10;18.93;;;9.53;;
11935;SDS011;6027;48.576;9.180;2022-11-27T08:41:36;13.20;;;11.00;;
11935;SDS011;6027;48.576;9.180;2022-11-27T08:44:01;15.10;;;13.60;;
11935;SDS011;6027;48.576;9.180;2022-11-27T08:46:27;12.57;;;11.37;;
11935;SDS011;6027;48.576;9.180;2022-11-27T08:48:52;12.90;;;11.17;;
11935;SDS011;6027;48.576;9.180;2022-11-27T08:51:18;14.47;;;11.87;;
11935;SDS011;6027;48.576;9.180;2022-11-27T08:53:43;13.60;;;12.23;;
11935;SDS011;6027;48.576;9.180;2022-11-27T08:56:13;11.17;;;10.07;;
11935;SDS011;6027;48.576;9.180;2022-11-27T08:58:42;11.23;;;10.13;;
11935;SDS011;6027;48.576;9.180;2022-11-27T09:01:09;10.97;;;9.97;;
11935;SDS011;6027;48.576;9.180;2022-11-27T09:03:36;6.70;;;6.20;;
11935;SDS011;6027;48.576;9.180;2022-11-27T09:06:04;6.40;;;5.90;;
11935;SDS011;6027;48.576;9.180;2022-11-27T09:08:31;6.07;;;5.60;;
11935;SDS011;6027;48.576;9.180;2022-11-27T09:10:58;6.07;;;5.47;;
11935;SDS011;6027;48.576;9.180;2022-11-27T09:13:31;5.40;;;5.00;;
11935;SDS011;6027;48.576;9.180;2022-11-27T09:15:57;7.03;;;5.93;;
11935;SDS011;6027;48.576;9.180;2022-11-27T09:18:23;6.50;;;6.00;;
11935;SDS011;6027;48.576;9.180;2022-11-27T09:20:56;7.17;;;6.57;;
11935;SDS011;6027;48.576;9.180;2022-11-27T09:23:23;6.73;;;6.30;;
11935;SDS011;6027;48.576;9.180;2022-11-27T09:25:48;7.30;;;6.70;;
11935;SDS011;6027;48.576;9.180;2022-11-27T09:28:14;8.03;;;7.23;;
11935;SDS011;6027;48.576;9.180;2022-11-27T09:30:41;6.47;;;5.87;;
11935;SDS011;6027;48.576;9.180;2022-11-27T09:33:06;8.27;;;7.40;;
11935;SDS011;6027;48.576;9.180;2022-11-27T09:35:31;7.50;;;6.90;;
11935;SDS011;6027;48.576;9.180;2022-11-27T09:37:57;9.23;;;8.43;;
11935;SDS011;6027;48.576;9.180;2022-11-27T09:40:23;9.10;;;8.40;;
11935;SDS011;6027;48.576;9.180;2022-11-27T09:42:56;9.57;;;8.77;;
11935;SDS011;6027;48.576;9.180;2022-11-27T09:45:26;9.17;;;8.47;;
11935;SDS011;6027;48.576;9.180;2022-11-27T09:47:54;11.43;;;10.53;;
11935;SDS011;6027;48.576;9.180;2022-11-27T09:50:23;9.37;;;8.57;;
11935;SDS011;6027;48.576;9.180;2022-11-27T09:52:54;9.93;;;9.13;;
11935;SDS011;6027;48.576;9.180;2022-11-27T09:57:55;9.40;;;8.60;;
11935;SDS011;6027;48.576;9.180;2022-11-27T10:00:22;9.20;;;8.40;;
11935;SDS011;6027;48.576;9.180;2022-11-27T10:02:48;9.77;;;8.97;;
11935;SDS011;6027;48.576;9.180;2022-11-27T10:05:16;8.03;;;7.43;;
11935;SDS011;6027;48.576;9.180;2022-11-27T10:10:37;8.50;;;7.80;;
11935;SDS011;6027;48.576;9.180;2022-11-27T10:19:01;7.93;;;6.87;;
11935;SDS011;6027;48.576;9.180;2022-11-27T10:24:01;7.47;;;6.90;;
11935;SDS011;6027;48.576;9.180;2022-11-27T10:26:33;12.53;;;11.37;;
11935;SDS011;6027;48.576;9.180;2022-11-27T10:32:16;10.03;;;9.13;;
11935;SDS011;6027;48.576;9.180;2022-11-27T10:34:49;8.83;;;8.13;;
11935;SDS011;6027;48.576;9.180;2022-11-27T10:37:22;9.37;;;8.57;;
11935;SDS011;6027;48.576;9.180;2022-11-27T10:39:55;9.77;;;8.77;;
11935;SDS011;6027;48.576;9.180;2022-11-27T10:45:16;8.23;;;7.63;;
11935;SDS011;6027;48.576;9.180;2022-11-27T10:47:45;7.73;;;7.13;;
11935;SDS011;6027;48.576;9.180;2022-11-27T10:50:13;7.60;;;6.90;;
11935;SDS011;6027;48.576;9.180;2022-11-27T10:52:49;8.07;;;7.37;;
11935;SDS011;6027;48.576;9.180;2022-11-27T10:55:27;7.53;;;6.93;;
11935;SDS011;6027;48.576;9.180;2022-11-27T10:58:22;9.27;;;8.47;;
11935;SDS011;6027;48.576;9.180;2022-11-27T11:01:11;9.23;;;8.43;;
11935;SDS011;6027;48.576;9.180;2022-11-27T11:03:38;9.43;;;8.60;;
11935;SDS011;6027;48.576;9.180;2022-11-27T11:06:05;9.37;;;8.60;;
11935;SDS011;6027;48.576;9.180;2022-11-27T11:08:33;10.40;;;9.00;;
11935;SDS011;6027;48.576;9.180;2022-11-27T11:11:03;10.03;;;9.13;;
11935;SDS011;6027;48.576;9.180;2022-11-27T11:13:31;10.70;;;9.60;;
11935;SDS011;6027;48.576;9.180;2022-11-27T11:16:15;11.23;;;10.10;;
11935;SDS011;6027;48.576;9.180;2022-11-27T11:18:44;9.60;;;8.70;;
11935;SDS011;6027;48.576;9.180;2022-11-27T11:21:26;9.73;;;8.43;;
11935;SDS011;6027;48.576;9.180;2022-11-27T11:23:58;8.87;;;8.07;;
11935;SDS011;6027;48.576;9.180;2022-11-27T11:26:38;10.10;;;9.20;;
11935;SDS011;6027;48.576;9.180;2022-11-27T11:29:45;10.20;;;9.20;;
11935;SDS011;6027;48.576;9.180;2022-11-27T11:37:46;6.53;;;5.93;;
11935;SDS011;6027;48.576;9.180;2022-11-27T11:42:47;6.10;;;5.40;;
11935;SDS011;6027;48.576;9.180;2022-11-27T11:45:17;4.23;;;3.83;;
11935;SDS011;6027;48.576;9.180;2022-11-27T11:47:48;5.03;;;4.53;;
11935;SDS011;6027;48.576;9.180;2022-11-27T11:53:08;4.07;;;3.67;;
11935;SDS011;6027;48.576;9.180;2022-11-27T12:02:07;3.97;;;3.67;;
11935;SDS011;6027;48.576;9.180;2022-11-27T12:28:15;7.53;;;5.00;;
11935;SDS011;6027;48.576;9.180;2022-11-27T12:39:32;6.47;;;5.50;;
11935;SDS011;6027;48.576;9.180;2022-11-27T12:47:48;7.30;;;5.33;;
11935;SDS011;6027;48.576;9.180;2022-11-27T12:52:53;6.47;;;5.87;;
11935;SDS011;6027;48.576;9.180;2022-11-27T12:55:23;4.30;;;3.90;;
11935;SDS011;6027;48.576;9.180;2022-11-27T12:57:53;4.97;;;4.40;;
11935;SDS011;6027;48.576;9.180;2022-11-27T13:00:31;5.80;;;4.27;;
11935;SDS011;6027;48.576;9.180;2022-11-27T13:05:45;6.03;;;4.27;;
11935;SDS011;6027;48.576;9.180;2022-11-27T13:08:17;4.83;;;4.33;;
11935;SDS011;6027;48.576;9.180;2022-11-27T13:10:53;4.73;;;4.23;;
11935;SDS011;6027;48.576;9.180;2022-11-27T13:13:36;4.83;;;4.13;;
11935;SDS011;6027;48.576;9.180;2022-11-27T13:16:17;4.20;;;3.80;;
11935;SDS011;6027;48.576;9.180;2022-11-27T13:21:25;3.40;;;3.10;;
11935;SDS011;6027;48.576;9.180;2022-11-27T13:23:54;3.70;;;2.97;;
11935;SDS011;6027;48.576;9.180;2022-11-27T13:26:40;3.80;;;3.40;;
11935;SDS011;6027;48.576;9.180;2022-11-27T13:29:12;4.67;;;3.90;;
11935;SDS011;6027;48.576;9.180;2022-11-27T13:31:43;3.67;;;3.30;;
11935;SDS011;6027;48.576;9.180;2022-11-27T13:34:19;4.73;;;4.23;;
11935;SDS011;6027;48.576;9.180;2022-11-27T13:36:53;5.32;;;4.20;;
11935;SDS011;6027;48.576;9.180;2022-11-27T13:39:29;11.20;;;8.87;;
11935;SDS011;6027;48.576;9.180;2022-11-27T13:42:19;8.80;;;7.47;;
11935;SDS011;6027;48.576;9.180;2022-11-27T13:44:57;8.47;;;7.53;;
11935;SDS011;6027;48.576;9.180;2022-11-27T13:47:26;5.25;;;4.72;;
11935;SDS011;6027;48.576;9.180;2022-11-27T13:50:13;5.10;;;4.60;;
11935;SDS011;6027;48.576;9.180;2022-11-27T13:52:58;4.67;;;4.27;;
11935;SDS011;6027;48.576;9.180;2022-11-27T13:55:29;4.63;;;4.07;;
11935;SDS011;6027;48.576;9.180;2022-11-27T13:57:57;5.03;;;4.17;;
11935;SDS011;6027;48.576;9.180;2022-11-27T14:00:35;4.53;;;4.13;;
11935;SDS011;6027;48.576;9.180;2022-11-27T14:03:06;5.67;;;4.40;;
11935;SDS011;6027;48.576;9.180;2022-11-27T14:05:36;4.80;;;4.30;;
11935;SDS011;6027;48.576;9.180;2022-11-27T14:08:14;5.70;;;4.80;;
11935;SDS011;6027;48.576;9.180;2022-11-27T14:10:47;5.33;;;4.83;;
11935;SDS011;6027;48.576;9.180;2022-11-27T14:13:16;5.70;;;5.07;;
11935;SDS011;6027;48.576;9.180;2022-11-27T14:15:43;5.30;;;4.73;;
11935;SDS011;6027;48.576;9.180;2022-11-27T14:18:20;6.83;;;5.70;;
11935;SDS011;6027;48.576;9.180;2022-11-27T14:20:55;17.47;;;12.90;;
11935;SDS011;6027;48.576;9.180;2022-11-27T14:23:34;9.17;;;7.43;;
11935;SDS011;6027;48.576;9.180;2022-11-27T14:28:55;6.50;;;5.90;;
11935;SDS011;6027;48.576;9.180;2022-11-27T14:33:54;6.87;;;6.27;;
11935;SDS011;6027;48.576;9.180;2022-11-27T14:36:25;5.23;;;4.67;;
11935;SDS011;6027;48.576;9.180;2022-11-27T14:38:54;5.57;;;4.77;;
11935;SDS011;6027;48.576;9.180;2022-11-27T14:41:20;6.05;;;4.50;;
11935;SDS011;6027;48.576;9.180;2022-11-27T14:43:47;4.83;;;4.37;;
11935;SDS011;6027;48.576;9.180;2022-11-27T14:46:23;4.93;;;4.43;;
11935;SDS011;6027;48.576;9.180;2022-11-27T14:48:49;4.50;;;4.10;;
11935;SDS011;6027;48.576;9.180;2022-11-27T14:51:18;5.33;;;4.10;;
11935;SDS011;6027;48.576;9.180;2022-11-27T14:53:47;5.37;;;4.50;;
11935;SDS011;6027;48.576;9.180;2022-11-27T14:56:14;4.30;;;3.90;;
11935;SDS011;6027;48.576;9.180;2022-11-27T14:58:49;4.27;;;3.87;;
11935;SDS011;6027;48.576;9.180;2022-11-27T15:01:27;4.83;;;3.80;;
11935;SDS011;6027;48.576;9.180;2022-11-27T15:03:57;4.57;;;3.90;;
11935;SDS011;6027;48.576;9.180;2022-11-27T15:06:32;4.90;;;3.73;;
11935;SDS011;6027;48.576;9.180;2022-11-27T15:09:04;4.73;;;4.33;;
11935;SDS011;6027;48.576;9.180;2022-11-27T15:11:30;4.90;;;4.40;;
11935;SDS011;6027;48.576;9.180;2022-11-27T15:13:56;4.77;;;3.83;;
11935;SDS011;6027;48.576;9.180;2022-11-27T15:16:25;5.03;;;4.37;;
11935;SDS011;6027;48.576;9.180;2022-11-27T15:18:54;5.03;;;4.53;;
11935;SDS011;6027;48.576;9.180;2022-11-27T15:21:24;5.77;;;4.87;;
11935;SDS011;6027;48.576;9.180;2022-11-27T15:23:50;5.93;;;4.67;;
11935;SDS011;6027;48.576;9.180;2022-11-27T15:26:31;6.33;;;4.73;;
11935;SDS011;6027;48.576;9.180;2022-11-27T15:28:59;5.17;;;4.60;;
11935;SDS011;6027;48.576;9.180;2022-11-27T15:31:27;5.77;;;5.23;;
11935;SDS011;6027;48.576;9.180;2022-11-27T15:36:26;10.33;;;7.30;;
11935;SDS011;6027;48.576;9.180;2022-11-27T15:39:03;6.93;;;5.93;;
11935;SDS011;6027;48.576;9.180;2022-11-27T15:41:34;7.10;;;6.40;;
11935;SDS011;6027;48.576;9.180;2022-11-27T15:44:00;7.73;;;6.83;;
11935;SDS011;6027;48.576;9.180;2022-11-27T15:46:28;9.37;;;8.23;;
11935;SDS011;6027;48.576;9.180;2022-11-27T15:48:58;10.10;;;8.00;;
11935;SDS011;6027;48.576;9.180;2022-11-27T15:51:24;9.43;;;6.43;;
11935;SDS011;6027;48.576;9.180;2022-11-27T15:53:49;10.57;;;8.63;;
11935;SDS011;6027;48.576;9.180;2022-11-27T15:56:15;29.83;;;21.23;;
11935;SDS011;6027;48.576;9.180;2022-11-27T15:58:43;17.27;;;12.80;;
11935;SDS011;6027;48.576;9.180;2022-11-27T16:01:09;5.27;;;4.77;;
11935;SDS011;6027;48.576;9.180;2022-11-27T16:03:35;4.43;;;4.03;;
11935;SDS011;6027;48.576;9.180;2022-11-27T16:06:04;4.33;;;3.93;;
11935;SDS011;6027;48.576;9.180;2022-11-27T16:08:34;4.43;;;4.03;;
11935;SDS011;6027;48.576;9.180;2022-11-27T16:11:01;9.67;;;8.77;;
11935;SDS011;6027;48.576;9.180;2022-11-27T16:13:32;16.20;;;13.20;;
11935;SDS011;6027;48.576;9.180;2022-11-27T16:16:02;6.80;;;6.13;;
11935;SDS011;6027;48.576;9.180;2022-11-27T16:18:29;5.40;;;4.87;;
11935;SDS011;6027;48.576;9.180;2022-11-27T16:20:55;5.33;;;4.83;;
11935;SDS011;6027;48.576;9.180;2022-11-27T16:23:25;7.43;;;6.73;;
11935;SDS011;6027;48.576;9.180;2022-11-27T16:25:51;5.10;;;4.60;;
11935;SDS011;6027;48.576;9.180;2022-11-27T16:28:16;4.90;;;4.40;;
11935;SDS011;6027;48.576;9.180;2022-11-27T16:30:41;5.23;;;4.73;;
11935;SDS011;6027;48.576;9.180;2022-11-27T16:33:07;5.30;;;4.80;;
11935;SDS011;6027;48.576;9.180;2022-11-27T16:35:32;4.10;;;3.80;;
11935;SDS011;6027;48.576;9.180;2022-11-27T16:37:57;5.40;;;4.63;;
11935;SDS011;6027;48.576;9.180;2022-11-27T16:40:23;4.60;;;4.20;;
11935;SDS011;6027;48.576;9.180;2022-11-27T16:42:48;5.73;;;4.50;;
11935;SDS011;6027;48.576;9.180;2022-11-27T16:45:14;5.63;;;5.10;;
11935;SDS011;6027;48.576;9.180;2022-11-27T16:47:39;5.13;;;4.63;;
11935;SDS011;6027;48.576;9.180;2022-11-27T16:50:05;5.33;;;4.80;;
11935;SDS011;6027;48.576;9.180;2022-11-27T16:52:31;7.70;;;6.90;;
11935;SDS011;6027;48.576;9.180;2022-11-27T16:54:56;11.53;;;10.27;;
11935;SDS011;6027;48.576;9.180;2022-11-27T16:57:22;30.43;;;23.00;;
11935;SDS011;6027;48.576;9.180;2022-11-27T16:59:47;12.60;;;10.57;;
11935;SDS011;6027;48.576;9.180;2022-11-27T17:02:14;6.50;;;5.63;;
11935;SDS011;6027;48.576;9.180;2022-11-27T17:04:40;5.60;;;5.10;;